sensor_id;sensor_type;location;lat;lon;timestamp;pressure;altitude;pressure_sealevel;temperature;humidity
73429;BME280;61643;49.564;17.412;2023-07-08T00:00:38;98786.84;;;14.13;82.23
73429;BME280;61643;49.564;17.412;2023-07-08T00:03:04;98793.31;;;14.02;81.62
73429;BME280;61643;49.564;17.412;2023-07-08T00:05:30;98790.34;;;14.08;81.24
73429;BME280;61643;49.564;17.412;2023-07-08T00:07:56;98790.06;;;14.05;80.58
73429;BME280;61643;49.564;17.412;2023-07-08T00:10:24;98792.03;;;14.19;80.79
73429;BME280;61643;49.564;17.412;2023-07-08T00:12:53;98796.38;;;14.25;80.43
73429;BME280;61643;49.564;17.412;2023-07-08T00:15:21;98794.00;;;14.34;80.65
73429;BME280;61643;49.564;17.412;2023-07-08T00:17:48;98790.66;;;14.17;80.20
73429;BME280;61643;49.564;17.412;2023-07-08T00:20:20;98790.88;;;14.05;80.70
73429;BME280;61643;49.564;17.412;2023-07-08T00:22:47;98791.97;;;14.04;80.67
73429;BME280;61643;49.564;17.412;2023-07-08T00:25:18;98792.00;;;14.09;80.92
73429;BME280;61643;49.564;17.412;2023-07-08T00:27:48;98789.03;;;14.16;80.64
73429;BME280;61643;49.564;17.412;2023-07-08T00:30:23;98788.25;;;14.20;80.45
73429;BME280;61643;49.564;17.412;2023-07-08T00:32:50;98784.75;;;14.30;79.92
73429;BME280;61643;49.564;17.412;2023-07-08T00:35:33;98777.50;;;14.36;79.43
73429;BME280;61643;49.564;17.412;2023-07-08T00:38:00;98778.59;;;14.50;79.53
73429;BME280;61643;49.564;17.412;2023-07-08T00:40:31;98779.59;;;14.34;80.21
73429;BME280;61643;49.564;17.412;2023-07-08T00:43:01;98788.78;;;14.32;80.51
73429;BME280;61643;49.564;17.412;2023-07-08T00:45:35;98780.94;;;14.26;79.90
73429;BME280;61643;49.564;17.412;2023-07-08T00:48:25;98782.53;;;14.17;80.74
73429;BME280;61643;49.564;17.412;2023-07-08T00:50:54;98778.78;;;14.28;81.05
73429;BME280;61643;49.564;17.412;2023-07-08T00:53:24;98777.41;;;14.25;80.60
73429;BME280;61643;49.564;17.412;2023-07-08T00:56:05;98784.44;;;14.16;81.15
73429;BME280;61643;49.564;17.412;2023-07-08T00:58:40;98769.28;;;14.25;80.77
73429;BME280;61643;49.564;17.412;2023-07-08T01:01:08;98768.50;;;14.30;80.82
73429;BME280;61643;49.564;17.412;2023-07-08T01:03:42;98769.91;;;14.38;80.37
73429;BME280;61643;49.564;17.412;2023-07-08T01:06:09;98761.25;;;14.36;80.73
73429;BME280;61643;49.564;17.412;2023-07-08T01:08:35;98761.19;;;14.30;80.33
73429;BME280;61643;49.564;17.412;2023-07-08T01:11:03;98766.47;;;13.85;83.36
73429;BME280;61643;49.564;17.412;2023-07-08T01:13:34;98770.84;;;13.96;83.12
73429;BME280;61643;49.564;17.412;2023-07-08T01:16:02;98770.81;;;13.91;82.92
73429;BME280;61643;49.564;17.412;2023-07-08T01:18:28;98770.19;;;13.79;83.69
73429;BME280;61643;49.564;17.412;2023-07-08T01:20:55;98765.28;;;13.66;83.76
73429;BME280;61643;49.564;17.412;2023-07-08T01:23:22;98763.84;;;13.48;84.67
73429;BME280;61643;49.564;17.412;2023-07-08T01:25:49;98762.72;;;13.44;84.83
73429;BME280;61643;49.564;17.412;2023-07-08T01:28:15;98764.09;;;13.47;85.21
73429;BME280;61643;49.564;17.412;2023-07-08T01:30:42;98765.16;;;13.46;85.30
73429;BME280;61643;49.564;17.412;2023-07-08T01:33:17;98762.97;;;13.38;86.31
73429;BME280;61643;49.564;17.412;2023-07-08T01:35:45;98762.41;;;13.36;86.29
73429;BME280;61643;49.564;17.412;2023-07-08T01:38:13;98759.16;;;13.34;86.65
73429;BME280;61643;49.564;17.412;2023-07-08T01:40:49;98764.28;;;13.35;86.53
73429;BME280;61643;49.564;17.412;2023-07-08T01:43:15;98763.50;;;13.35;86.54
73429;BME280;61643;49.564;17.412;2023-07-08T01:45:42;98763.75;;;13.33;86.72
73429;BME280;61643;49.564;17.412;2023-07-08T01:48:14;98763.44;;;13.29;87.03
73429;BME280;61643;49.564;17.412;2023-07-08T01:50:50;98763.19;;;13.31;87.13
73429;BME280;61643;49.564;17.412;2023-07-08T01:53:20;98760.44;;;13.26;87.49
73429;BME280;61643;49.564;17.412;2023-07-08T01:55:47;98757.22;;;13.29;86.82
73429;BME280;61643;49.564;17.412;2023-07-08T01:58:13;98756.97;;;13.30;86.92
73429;BME280;61643;49.564;17.412;2023-07-08T02:00:39;98760.75;;;13.29;86.98
73429;BME280;61643;49.564;17.412;2023-07-08T02:03:05;98755.97;;;13.42;86.36
73429;BME280;61643;49.564;17.412;2023-07-08T02:05:31;98756.78;;;13.47;85.90
73429;BME280;61643;49.564;17.412;2023-07-08T02:07:57;98758.66;;;13.42;86.54
73429;BME280;61643;49.564;17.412;2023-07-08T02:10:23;98755.69;;;13.38;86.79
73429;BME280;61643;49.564;17.412;2023-07-08T02:12:51;98754.56;;;13.39;87.15
73429;BME280;61643;49.564;17.412;2023-07-08T02:15:17;98752.94;;;13.33;86.84
73429;BME280;61643;49.564;17.412;2023-07-08T02:17:43;98748.81;;;13.25;87.35
73429;BME280;61643;49.564;17.412;2023-07-08T02:20:09;98759.97;;;13.02;89.38
73429;BME280;61643;49.564;17.412;2023-07-08T02:22:35;98757.63;;;13.11;88.63
73429;BME280;61643;49.564;17.412;2023-07-08T02:25:02;98753.53;;;13.08;88.50
73429;BME280;61643;49.564;17.412;2023-07-08T02:27:28;98750.28;;;13.06;89.06
73429;BME280;61643;49.564;17.412;2023-07-08T02:29:54;98756.19;;;13.03;89.48
73429;BME280;61643;49.564;17.412;2023-07-08T02:32:20;98759.91;;;12.92;89.76
73429;BME280;61643;49.564;17.412;2023-07-08T02:34:46;98760.19;;;12.96;89.52
73429;BME280;61643;49.564;17.412;2023-07-08T02:37:12;98756.19;;;12.98;88.36
73429;BME280;61643;49.564;17.412;2023-07-08T02:39:38;98752.44;;;13.04;88.13
73429;BME280;61643;49.564;17.412;2023-07-08T02:42:04;98759.19;;;13.07;87.78
73429;BME280;61643;49.564;17.412;2023-07-08T02:44:30;98757.41;;;13.12;87.58
73429;BME280;61643;49.564;17.412;2023-07-08T02:46:56;98753.88;;;13.17;87.55
73429;BME280;61643;49.564;17.412;2023-07-08T02:49:22;98747.13;;;13.14;87.69
73429;BME280;61643;49.564;17.412;2023-07-08T02:51:48;98747.03;;;13.04;88.34
73429;BME280;61643;49.564;17.412;2023-07-08T02:54:14;98750.91;;;13.13;88.25
73429;BME280;61643;49.564;17.412;2023-07-08T02:56:40;98755.81;;;13.16;87.85
73429;BME280;61643;49.564;17.412;2023-07-08T02:59:06;98758.56;;;13.26;86.85
73429;BME280;61643;49.564;17.412;2023-07-08T03:01:32;98763.94;;;13.21;86.87
73429;BME280;61643;49.564;17.412;2023-07-08T03:03:59;98758.63;;;12.68;91.79
73429;BME280;61643;49.564;17.412;2023-07-08T03:06:26;98755.47;;;12.81;90.99
73429;BME280;61643;49.564;17.412;2023-07-08T03:08:52;98755.75;;;12.79;91.49
73429;BME280;61643;49.564;17.412;2023-07-08T03:11:18;98757.19;;;12.60;91.00
73429;BME280;61643;49.564;17.412;2023-07-08T03:13:43;98754.84;;;12.69;91.09
73429;BME280;61643;49.564;17.412;2023-07-08T03:16:09;98753.47;;;12.66;91.50
73429;BME280;61643;49.564;17.412;2023-07-08T03:18:39;98759.13;;;12.65;91.06
73429;BME280;61643;49.564;17.412;2023-07-08T03:21:13;98764.53;;;12.38;92.10
73429;BME280;61643;49.564;17.412;2023-07-08T03:23:39;98759.44;;;12.42;92.61
73429;BME280;61643;49.564;17.412;2023-07-08T03:26:05;98754.72;;;12.54;91.94
73429;BME280;61643;49.564;17.412;2023-07-08T03:28:31;98751.03;;;12.65;92.53
73429;BME280;61643;49.564;17.412;2023-07-08T03:30:57;98761.25;;;12.63;92.07
73429;BME280;61643;49.564;17.412;2023-07-08T03:33:23;98753.53;;;12.71;92.05
73429;BME280;61643;49.564;17.412;2023-07-08T03:35:49;98758.69;;;12.73;92.70
73429;BME280;61643;49.564;17.412;2023-07-08T03:38:16;98762.47;;;12.77;91.90
73429;BME280;61643;49.564;17.412;2023-07-08T03:40:42;98762.47;;;12.77;92.66
73429;BME280;61643;49.564;17.412;2023-07-08T03:43:08;98761.91;;;12.75;92.89
73429;BME280;61643;49.564;17.412;2023-07-08T03:45:34;98757.19;;;12.87;92.37
73429;BME280;61643;49.564;17.412;2023-07-08T03:48:00;98758.84;;;12.93;91.77
73429;BME280;61643;49.564;17.412;2023-07-08T03:50:26;98752.09;;;12.96;91.61
73429;BME280;61643;49.564;17.412;2023-07-08T03:52:53;98765.13;;;13.04;92.01
73429;BME280;61643;49.564;17.412;2023-07-08T03:55:20;98762.38;;;13.30;91.12
73429;BME280;61643;49.564;17.412;2023-07-08T03:57:46;98765.00;;;13.62;89.42
73429;BME280;61643;49.564;17.412;2023-07-08T04:00:13;98762.41;;;13.88;88.80
73429;BME280;61643;49.564;17.412;2023-07-08T04:02:40;98759.00;;;14.22;86.09
73429;BME280;61643;49.564;17.412;2023-07-08T04:05:08;98756.94;;;14.40;85.88
73429;BME280;61643;49.564;17.412;2023-07-08T04:07:35;98753.16;;;14.61;84.28
73429;BME280;61643;49.564;17.412;2023-07-08T04:10:01;98752.84;;;14.37;83.32
73429;BME280;61643;49.564;17.412;2023-07-08T04:12:27;98754.78;;;14.87;83.06
73429;BME280;61643;49.564;17.412;2023-07-08T04:14:53;98747.72;;;15.06;83.67
73429;BME280;61643;49.564;17.412;2023-07-08T04:17:19;98753.94;;;15.17;81.86
73429;BME280;61643;49.564;17.412;2023-07-08T04:19:45;98751.47;;;15.46;82.70
73429;BME280;61643;49.564;17.412;2023-07-08T04:22:11;98754.16;;;15.61;79.61
73429;BME280;61643;49.564;17.412;2023-07-08T04:24:38;98751.44;;;15.61;79.99
73429;BME280;61643;49.564;17.412;2023-07-08T04:27:04;98738.06;;;15.85;81.02
73429;BME280;61643;49.564;17.412;2023-07-08T04:29:30;98738.00;;;16.00;82.10
73429;BME280;61643;49.564;17.412;2023-07-08T04:31:56;98744.19;;;16.10;81.71
73429;BME280;61643;49.564;17.412;2023-07-08T04:34:22;98741.47;;;16.10;81.51
73429;BME280;61643;49.564;17.412;2023-07-08T04:36:48;98744.19;;;16.10;83.21
73429;BME280;61643;49.564;17.412;2023-07-08T04:39:14;98744.41;;;16.19;83.00
73429;BME280;61643;49.564;17.412;2023-07-08T04:41:40;98745.69;;;16.32;84.10
73429;BME280;61643;49.564;17.412;2023-07-08T04:44:07;98744.53;;;16.43;82.48
73429;BME280;61643;49.564;17.412;2023-07-08T04:46:37;98755.88;;;16.60;81.28
73429;BME280;61643;49.564;17.412;2023-07-08T04:49:06;98751.69;;;16.78;79.66
73429;BME280;61643;49.564;17.412;2023-07-08T04:51:32;98752.66;;;16.92;77.02
73429;BME280;61643;49.564;17.412;2023-07-08T04:53:59;98757.50;;;17.00;74.82
73429;BME280;61643;49.564;17.412;2023-07-08T04:56:26;98761.69;;;17.16;74.42
73429;BME280;61643;49.564;17.412;2023-07-08T04:59:00;98759.69;;;17.27;75.52
73429;BME280;61643;49.564;17.412;2023-07-08T05:01:27;98757.09;;;17.40;74.74
73429;BME280;61643;49.564;17.412;2023-07-08T05:03:53;98758.91;;;17.50;73.50
73429;BME280;61643;49.564;17.412;2023-07-08T05:06:19;98770.03;;;17.53;74.18
73429;BME280;61643;49.564;17.412;2023-07-08T05:08:45;98764.00;;;17.61;74.55
73429;BME280;61643;49.564;17.412;2023-07-08T05:11:11;98766.28;;;17.73;74.92
73429;BME280;61643;49.564;17.412;2023-07-08T05:13:37;98766.88;;;17.70;73.35
73429;BME280;61643;49.564;17.412;2023-07-08T05:16:03;98771.09;;;17.81;73.58
73429;BME280;61643;49.564;17.412;2023-07-08T05:18:29;98773.50;;;17.64;72.25
73429;BME280;61643;49.564;17.412;2023-07-08T05:20:55;98769.25;;;17.77;72.60
73429;BME280;61643;49.564;17.412;2023-07-08T05:23:22;98767.88;;;17.79;71.98
73429;BME280;61643;49.564;17.412;2023-07-08T05:25:48;98773.03;;;17.81;70.75
73429;BME280;61643;49.564;17.412;2023-07-08T05:28:14;98777.25;;;17.92;70.83
73429;BME280;61643;49.564;17.412;2023-07-08T05:30:40;98781.47;;;18.03;70.45
73429;BME280;61643;49.564;17.412;2023-07-08T05:33:07;98771.38;;;18.03;69.41
73429;BME280;61643;49.564;17.412;2023-07-08T05:35:33;98775.38;;;18.11;69.87
73429;BME280;61643;49.564;17.412;2023-07-08T05:37:59;98788.06;;;18.20;69.48
73429;BME280;61643;49.564;17.412;2023-07-08T05:40:25;98786.75;;;18.18;69.52
73429;BME280;61643;49.564;17.412;2023-07-08T05:42:51;98778.19;;;18.25;69.63
73429;BME280;61643;49.564;17.412;2023-07-08T05:45:17;98786.81;;;18.32;70.36
73429;BME280;61643;49.564;17.412;2023-07-08T05:47:43;98788.97;;;18.35;71.01
73429;BME280;61643;49.564;17.412;2023-07-08T05:50:09;98786.41;;;18.43;71.38
73429;BME280;61643;49.564;17.412;2023-07-08T05:52:35;98789.84;;;18.49;71.14
73429;BME280;61643;49.564;17.412;2023-07-08T05:55:01;98782.16;;;18.56;70.96
73429;BME280;61643;49.564;17.412;2023-07-08T05:57:27;98781.50;;;18.64;71.20
73429;BME280;61643;49.564;17.412;2023-07-08T05:59:53;98786.81;;;18.55;69.66
73429;BME280;61643;49.564;17.412;2023-07-08T06:02:19;98783.13;;;18.65;70.01
73429;BME280;61643;49.564;17.412;2023-07-08T06:04:51;98786.50;;;18.76;69.62
73429;BME280;61643;49.564;17.412;2023-07-08T06:07:17;98777.44;;;18.80;70.03
73429;BME280;61643;49.564;17.412;2023-07-08T06:09:43;98776.25;;;18.86;68.63
73429;BME280;61643;49.564;17.412;2023-07-08T06:12:10;98781.84;;;18.95;68.23
73429;BME280;61643;49.564;17.412;2023-07-08T06:14:36;98778.22;;;18.99;68.94
73429;BME280;61643;49.564;17.412;2023-07-08T06:17:03;98785.44;;;19.09;68.83
73429;BME280;61643;49.564;17.412;2023-07-08T06:19:29;98784.63;;;19.08;68.01
73429;BME280;61643;49.564;17.412;2023-07-08T06:21:55;98784.75;;;19.17;68.79
73429;BME280;61643;49.564;17.412;2023-07-08T06:24:21;98783.63;;;19.18;69.22
73429;BME280;61643;49.564;17.412;2023-07-08T06:26:47;98791.84;;;19.32;69.11
73429;BME280;61643;49.564;17.412;2023-07-08T06:29:13;98783.53;;;19.42;69.33
73429;BME280;61643;49.564;17.412;2023-07-08T06:31:39;98786.56;;;19.54;67.24
73429;BME280;61643;49.564;17.412;2023-07-08T06:34:05;98786.50;;;19.73;66.03
73429;BME280;61643;49.564;17.412;2023-07-08T06:36:31;98782.78;;;19.82;66.57
73429;BME280;61643;49.564;17.412;2023-07-08T06:38:57;98781.25;;;19.90;65.87
73429;BME280;61643;49.564;17.412;2023-07-08T06:41:23;98785.00;;;19.94;65.45
73429;BME280;61643;49.564;17.412;2023-07-08T06:43:49;98787.94;;;19.97;65.60
73429;BME280;61643;49.564;17.412;2023-07-08T06:46:16;98793.31;;;20.02;65.91
73429;BME280;61643;49.564;17.412;2023-07-08T06:48:42;98787.22;;;20.05;64.39
73429;BME280;61643;49.564;17.412;2023-07-08T06:51:08;98790.47;;;20.21;65.45
73429;BME280;61643;49.564;17.412;2023-07-08T06:53:34;98788.22;;;20.37;66.46
73429;BME280;61643;49.564;17.412;2023-07-08T06:56:01;98783.03;;;20.49;65.57
73429;BME280;61643;49.564;17.412;2023-07-08T06:58:28;98781.81;;;20.55;65.15
73429;BME280;61643;49.564;17.412;2023-07-08T07:00:54;98779.25;;;20.58;65.01
73429;BME280;61643;49.564;17.412;2023-07-08T07:03:20;98779.25;;;20.58;63.69
73429;BME280;61643;49.564;17.412;2023-07-08T07:05:46;98783.19;;;20.66;63.34
73429;BME280;61643;49.564;17.412;2023-07-08T07:08:12;98779.72;;;20.74;64.75
73429;BME280;61643;49.564;17.412;2023-07-08T07:10:38;98786.28;;;20.87;65.58
73429;BME280;61643;49.564;17.412;2023-07-08T07:13:04;98781.25;;;21.02;66.41
73429;BME280;61643;49.564;17.412;2023-07-08T07:15:30;98780.78;;;21.23;65.84
73429;BME280;61643;49.564;17.412;2023-07-08T07:17:58;98772.84;;;21.43;66.56
73429;BME280;61643;49.564;17.412;2023-07-08T07:20:25;98766.28;;;21.53;63.33
73429;BME280;61643;49.564;17.412;2023-07-08T07:22:51;98767.59;;;21.55;61.88
73429;BME280;61643;49.564;17.412;2023-07-08T07:25:17;98758.56;;;21.55;64.66
73429;BME280;61643;49.564;17.412;2023-07-08T07:27:44;98770.94;;;21.83;62.56
73429;BME280;61643;49.564;17.412;2023-07-08T07:30:10;98775.25;;;22.06;59.69
73429;BME280;61643;49.564;17.412;2023-07-08T07:32:41;98777.38;;;22.18;59.69
73429;BME280;61643;49.564;17.412;2023-07-08T07:35:12;98774.78;;;22.22;58.27
73429;BME280;61643;49.564;17.412;2023-07-08T07:37:41;98777.88;;;22.29;60.71
73429;BME280;61643;49.564;17.412;2023-07-08T07:40:11;98785.81;;;22.47;59.61
73429;BME280;61643;49.564;17.412;2023-07-08T07:42:40;98780.53;;;22.68;58.62
73429;BME280;61643;49.564;17.412;2023-07-08T07:45:07;98768.94;;;22.71;58.71
73429;BME280;61643;49.564;17.412;2023-07-08T07:47:33;98773.94;;;22.78;58.55
73429;BME280;61643;49.564;17.412;2023-07-08T07:49:59;98773.78;;;22.74;57.74
73429;BME280;61643;49.564;17.412;2023-07-08T07:52:26;98776.84;;;22.81;59.65
73429;BME280;61643;49.564;17.412;2023-07-08T07:54:52;98775.56;;;22.87;57.63
73429;BME280;61643;49.564;17.412;2023-07-08T07:57:20;98776.19;;;23.10;51.18
73429;BME280;61643;49.564;17.412;2023-07-08T07:59:47;98778.59;;;23.12;50.05
73429;BME280;61643;49.564;17.412;2023-07-08T08:02:15;98770.69;;;23.01;49.46
73429;BME280;61643;49.564;17.412;2023-07-08T08:04:41;98764.88;;;22.94;53.31
73429;BME280;61643;49.564;17.412;2023-07-08T08:07:07;98775.25;;;22.89;48.68
73429;BME280;61643;49.564;17.412;2023-07-08T08:09:33;98769.75;;;22.89;51.49
73429;BME280;61643;49.564;17.412;2023-07-08T08:12:02;98777.19;;;22.88;50.52
73429;BME280;61643;49.564;17.412;2023-07-08T08:14:30;98775.22;;;22.97;55.68
73429;BME280;61643;49.564;17.412;2023-07-08T08:16:56;98764.00;;;23.37;53.06
73429;BME280;61643;49.564;17.412;2023-07-08T08:19:22;98765.66;;;23.46;49.33
73429;BME280;61643;49.564;17.412;2023-07-08T08:21:48;98760.75;;;23.61;46.16
73429;BME280;61643;49.564;17.412;2023-07-08T08:24:14;98768.03;;;23.57;43.56
73429;BME280;61643;49.564;17.412;2023-07-08T08:26:40;98762.69;;;23.60;48.73
73429;BME280;61643;49.564;17.412;2023-07-08T08:29:06;98763.00;;;23.59;47.49
73429;BME280;61643;49.564;17.412;2023-07-08T08:31:32;98764.00;;;23.54;46.02
73429;BME280;61643;49.564;17.412;2023-07-08T08:33:58;98762.72;;;23.51;47.53
73429;BME280;61643;49.564;17.412;2023-07-08T08:36:25;98767.06;;;23.61;48.68
73429;BME280;61643;49.564;17.412;2023-07-08T08:38:50;98771.25;;;23.59;48.68
73429;BME280;61643;49.564;17.412;2023-07-08T08:41:19;98761.25;;;23.54;47.38
73429;BME280;61643;49.564;17.412;2023-07-08T08:43:48;98762.03;;;23.63;50.50
73429;BME280;61643;49.564;17.412;2023-07-08T08:46:32;98753.31;;;23.61;44.66
73429;BME280;61643;49.564;17.412;2023-07-08T08:49:18;98768.84;;;23.57;45.13
73429;BME280;61643;49.564;17.412;2023-07-08T08:51:49;98762.84;;;23.55;44.76
73429;BME280;61643;49.564;17.412;2023-07-08T08:54:15;98764.00;;;23.54;45.33
73429;BME280;61643;49.564;17.412;2023-07-08T08:56:59;98775.00;;;23.54;45.23
73429;BME280;61643;49.564;17.412;2023-07-08T08:59:44;98776.59;;;23.55;44.25
73429;BME280;61643;49.564;17.412;2023-07-08T09:05:05;98768.69;;;23.53;44.67
73429;BME280;61643;49.564;17.412;2023-07-08T09:08:12;98767.44;;;23.80;43.72
73429;BME280;61643;49.564;17.412;2023-07-08T09:13:25;98762.78;;;24.19;42.77
73429;BME280;61643;49.564;17.412;2023-07-08T09:18:58;98758.63;;;24.04;41.57
73429;BME280;61643;49.564;17.412;2023-07-08T09:21:33;98754.75;;;24.05;45.74
73429;BME280;61643;49.564;17.412;2023-07-08T09:24:11;98744.34;;;24.11;45.15
73429;BME280;61643;49.564;17.412;2023-07-08T09:26:41;98746.75;;;24.21;45.20
73429;BME280;61643;49.564;17.412;2023-07-08T09:29:10;98739.66;;;24.20;41.06
73429;BME280;61643;49.564;17.412;2023-07-08T09:31:39;98739.50;;;24.16;41.92
73429;BME280;61643;49.564;17.412;2023-07-08T09:34:12;98738.16;;;24.22;42.96
73429;BME280;61643;49.564;17.412;2023-07-08T09:36:44;98745.97;;;24.41;44.26
73429;BME280;61643;49.564;17.412;2023-07-08T09:39:13;98745.50;;;24.39;40.62
73429;BME280;61643;49.564;17.412;2023-07-08T09:41:41;98735.66;;;24.38;40.49
73429;BME280;61643;49.564;17.412;2023-07-08T09:44:15;98739.59;;;24.49;43.05
73429;BME280;61643;49.564;17.412;2023-07-08T09:46:41;98729.25;;;24.46;39.93
73429;BME280;61643;49.564;17.412;2023-07-08T09:49:19;98720.41;;;24.40;39.61
73429;BME280;61643;49.564;17.412;2023-07-08T09:51:46;98723.16;;;24.40;40.14
73429;BME280;61643;49.564;17.412;2023-07-08T09:54:14;98714.63;;;24.54;42.39
73429;BME280;61643;49.564;17.412;2023-07-08T09:56:43;98720.66;;;24.68;43.11
73429;BME280;61643;49.564;17.412;2023-07-08T09:59:13;98713.66;;;24.71;42.02
73429;BME280;61643;49.564;17.412;2023-07-08T10:01:41;98712.91;;;24.82;41.29
73429;BME280;61643;49.564;17.412;2023-07-08T10:04:08;98716.84;;;24.81;41.48
73429;BME280;61643;49.564;17.412;2023-07-08T10:06:34;98715.50;;;24.87;42.13
73429;BME280;61643;49.564;17.412;2023-07-08T10:09:09;98719.19;;;24.91;43.28
73429;BME280;61643;49.564;17.412;2023-07-08T10:11:42;98710.25;;;24.94;43.34
73429;BME280;61643;49.564;17.412;2023-07-08T10:14:24;98703.63;;;24.95;42.35
73429;BME280;61643;49.564;17.412;2023-07-08T10:16:51;98702.69;;;25.04;43.05
73429;BME280;61643;49.564;17.412;2023-07-08T10:19:19;98693.41;;;25.08;44.10
73429;BME280;61643;49.564;17.412;2023-07-08T10:30:21;98696.09;;;25.29;43.81
73429;BME280;61643;49.564;17.412;2023-07-08T10:35:45;98697.97;;;25.25;45.42
73429;BME280;61643;49.564;17.412;2023-07-08T10:44:21;98683.75;;;25.35;42.20
73429;BME280;61643;49.564;17.412;2023-07-08T10:50:20;98691.75;;;25.40;39.40
73429;BME280;61643;49.564;17.412;2023-07-08T10:52:52;98691.34;;;25.50;42.79
73429;BME280;61643;49.564;17.412;2023-07-08T10:58:18;98686.66;;;25.63;40.76
73429;BME280;61643;49.564;17.412;2023-07-08T11:03:58;98681.34;;;25.58;40.43
73429;BME280;61643;49.564;17.412;2023-07-08T11:06:57;98681.63;;;25.65;38.48
73429;BME280;61643;49.564;17.412;2023-07-08T11:09:48;98676.66;;;25.70;38.84
73429;BME280;61643;49.564;17.412;2023-07-08T11:12:26;98667.38;;;25.63;38.00
73429;BME280;61643;49.564;17.412;2023-07-08T11:15:02;98667.44;;;25.42;36.69
73429;BME280;61643;49.564;17.412;2023-07-08T11:17:48;98670.69;;;25.56;37.95
73429;BME280;61643;49.564;17.412;2023-07-08T11:20:22;98672.53;;;25.76;39.85
73429;BME280;61643;49.564;17.412;2023-07-08T11:23:16;98670.47;;;25.85;39.78
73429;BME280;61643;49.564;17.412;2023-07-08T11:25:45;98665.16;;;25.92;39.21
73429;BME280;61643;49.564;17.412;2023-07-08T11:28:15;98664.47;;;25.95;37.60
73429;BME280;61643;49.564;17.412;2023-07-08T11:30:44;98665.41;;;26.00;39.55
73429;BME280;61643;49.564;17.412;2023-07-08T11:33:13;98661.06;;;25.86;36.37
73429;BME280;61643;49.564;17.412;2023-07-08T11:35:52;98658.16;;;25.83;37.02
73429;BME280;61643;49.564;17.412;2023-07-08T11:38:21;98662.19;;;25.85;39.61
73429;BME280;61643;49.564;17.412;2023-07-08T11:41:12;98652.63;;;25.95;38.67
73429;BME280;61643;49.564;17.412;2023-07-08T11:44:10;98655.03;;;26.21;42.24
73429;BME280;61643;49.564;17.412;2023-07-08T11:46:53;98655.84;;;26.21;41.19
73429;BME280;61643;49.564;17.412;2023-07-08T11:49:20;98660.16;;;26.34;42.21
73429;BME280;61643;49.564;17.412;2023-07-08T11:51:47;98656.25;;;26.35;38.09
73429;BME280;61643;49.564;17.412;2023-07-08T11:54:20;98652.00;;;26.38;37.49
73429;BME280;61643;49.564;17.412;2023-07-08T11:56:56;98651.88;;;26.34;40.49
73429;BME280;61643;49.564;17.412;2023-07-08T11:59:25;98646.13;;;26.39;38.24
73429;BME280;61643;49.564;17.412;2023-07-08T12:01:54;98640.75;;;26.31;37.67
73429;BME280;61643;49.564;17.412;2023-07-08T12:04:32;98639.38;;;26.37;39.19
73429;BME280;61643;49.564;17.412;2023-07-08T12:07:06;98642.16;;;26.53;36.32
73429;BME280;61643;49.564;17.412;2023-07-08T12:09:46;98641.75;;;26.66;37.27
73429;BME280;61643;49.564;17.412;2023-07-08T12:12:25;98639.75;;;26.79;35.38
73429;BME280;61643;49.564;17.412;2023-07-08T12:15:00;98632.03;;;26.84;35.64
73429;BME280;61643;49.564;17.412;2023-07-08T12:17:28;98627.88;;;26.90;34.63
73429;BME280;61643;49.564;17.412;2023-07-08T12:19:57;98619.31;;;26.96;33.05
73429;BME280;61643;49.564;17.412;2023-07-08T12:22:26;98621.72;;;26.97;35.03
73429;BME280;61643;49.564;17.412;2023-07-08T12:24:52;98608.63;;;26.94;35.36
73429;BME280;61643;49.564;17.412;2023-07-08T12:27:18;98621.16;;;26.91;33.96
73429;BME280;61643;49.564;17.412;2023-07-08T12:29:44;98614.25;;;26.98;34.84
73429;BME280;61643;49.564;17.412;2023-07-08T12:32:12;98616.22;;;26.97;34.55
73429;BME280;61643;49.564;17.412;2023-07-08T12:34:39;98618.59;;;26.99;35.09
73429;BME280;61643;49.564;17.412;2023-07-08T12:37:10;98618.31;;;26.60;34.00
73429;BME280;61643;49.564;17.412;2023-07-08T12:39:38;98612.56;;;26.65;33.79
73429;BME280;61643;49.564;17.412;2023-07-08T12:42:10;98609.19;;;26.72;33.61
73429;BME280;61643;49.564;17.412;2023-07-08T12:44:38;98608.34;;;26.83;35.55
73429;BME280;61643;49.564;17.412;2023-07-08T12:47:08;98607.81;;;26.94;36.61
73429;BME280;61643;49.564;17.412;2023-07-08T12:49:34;98607.75;;;27.06;34.96
73429;BME280;61643;49.564;17.412;2023-07-08T12:52:01;98598.47;;;27.14;34.99
73429;BME280;61643;49.564;17.412;2023-07-08T12:54:28;98603.03;;;27.22;36.33
73429;BME280;61643;49.564;17.412;2023-07-08T12:56:54;98598.41;;;27.26;38.38
73429;BME280;61643;49.564;17.412;2023-07-08T12:59:22;98595.09;;;27.36;34.70
73429;BME280;61643;49.564;17.412;2023-07-08T13:01:50;98596.06;;;27.44;35.14
73429;BME280;61643;49.564;17.412;2023-07-08T13:04:17;98598.22;;;27.50;33.77
73429;BME280;61643;49.564;17.412;2023-07-08T13:06:45;98588.44;;;27.53;34.96
73429;BME280;61643;49.564;17.412;2023-07-08T13:12:19;98586.09;;;27.55;36.65
73429;BME280;61643;49.564;17.412;2023-07-08T13:14:55;98585.44;;;27.61;38.66
73429;BME280;61643;49.564;17.412;2023-07-08T13:17:24;98585.63;;;27.68;37.96
73429;BME280;61643;49.564;17.412;2023-07-08T13:19:51;98576.16;;;27.69;35.82
73429;BME280;61643;49.564;17.412;2023-07-08T13:22:20;98572.66;;;27.72;35.75
73429;BME280;61643;49.564;17.412;2023-07-08T13:24:48;98577.03;;;27.73;37.46
73429;BME280;61643;49.564;17.412;2023-07-08T13:27:22;98574.72;;;27.75;35.00
73429;BME280;61643;49.564;17.412;2023-07-08T13:29:54;98573.13;;;27.74;34.75
73429;BME280;61643;49.564;17.412;2023-07-08T13:32:32;98581.84;;;27.76;35.52
73429;BME280;61643;49.564;17.412;2023-07-08T13:34:59;98571.59;;;27.77;34.73
73429;BME280;61643;49.564;17.412;2023-07-08T13:37:25;98576.66;;;27.75;35.22